createdAt,value
2023-02-25T00:00:28.614Z,97128.22
2023-02-25T00:03:02.312Z,97137.54
2023-02-25T00:05:35.228Z,97127.28
2023-02-25T00:08:08.523Z,97115.29
2023-02-25T00:10:41.687Z,97111.28
2023-02-25T00:13:18.427Z,97122.36
2023-02-25T00:15:49.876Z,97110.39
2023-02-25T00:18:22.985Z,97121.52
2023-02-25T00:20:56.332Z,97102.72
2023-02-25T00:23:29.325Z,97104.42
2023-02-25T00:26:03.467Z,97112.13
2023-02-25T00:28:37.421Z,97108.74
2023-02-25T00:31:12.650Z,97105.36
2023-02-25T00:33:46.596Z,97103.68
2023-02-25T00:36:22.095Z,97106.23
2023-02-25T00:38:57.541Z,97100.38
2023-02-25T00:41:31.747Z,97095.27
2023-02-25T00:44:05.068Z,97100.41
2023-02-25T00:46:38.250Z,97087.61
2023-02-25T00:49:15.056Z,97092.78
2023-02-25T00:51:48.727Z,97097.09
2023-02-25T00:54:23.642Z,97091.17
2023-02-25T00:56:56.796Z,97085.21
2023-02-25T00:59:29.692Z,97078.36
2023-02-25T01:02:02.552Z,97078.34
2023-02-25T01:04:35.685Z,97081.79
2023-02-25T01:07:09.112Z,97079.29
2023-02-25T01:09:42.262Z,97080.27
2023-02-25T01:12:15.714Z,97079.34
2023-02-25T01:14:49.338Z,97076.75
2023-02-25T01:17:22.712Z,97073.37
2023-02-25T01:19:57.407Z,97075.95
2023-02-25T01:22:30.519Z,97073.37
2023-02-25T01:25:05.981Z,97072.56
2023-02-25T01:27:40.527Z,97061.45
2023-02-25T01:30:15.019Z,97069.95
2023-02-25T01:32:48.356Z,97065.69
2023-02-25T01:35:21.848Z,97058.89
2023-02-25T01:37:56.723Z,97066.52
2023-02-25T01:40:31.236Z,97067.37
2023-02-25T01:43:05.798Z,97067.39
2023-02-25T01:45:41.815Z,97064.03
2023-02-25T01:48:18.265Z,97066.64
2023-02-25T01:50:54.140Z,97059.80
2023-02-25T01:53:32.388Z,97058.16
2023-02-25T01:56:06.577Z,97055.62
2023-02-25T01:58:40.317Z,97054.72
2023-02-25T02:01:16.326Z,97054.74
2023-02-25T02:03:50.952Z,97043.75
2023-02-25T02:06:25.899Z,97045.45
2023-02-25T02:09:00.137Z,97042.00
2023-02-25T02:11:33.377Z,97042.88
2023-02-25T02:14:07.898Z,97043.78
2023-02-25T02:16:48.663Z,97041.22
2023-02-25T02:19:29.202Z,97032.64
2023-02-25T02:22:07.813Z,97032.72
2023-02-25T02:25:07.965Z,97030.09
2023-02-25T02:27:51.795Z,97023.28
2023-02-25T02:30:43.172Z,97031.83
2023-02-25T02:33:20.400Z,97025.05
2023-02-25T02:35:57.236Z,97021.61
2023-02-25T02:38:33.429Z,97017.40
2023-02-25T02:41:10.092Z,97021.67
2023-02-25T02:43:47.290Z,97020.78
2023-02-25T02:46:23.982Z,97015.69
2023-02-25T02:49:00.521Z,97017.40
2023-02-25T02:51:36.919Z,97010.63
2023-02-25T02:54:12.502Z,97016.56
2023-02-25T02:56:48.113Z,97017.40
2023-02-25T02:59:24.259Z,97016.55
2023-02-25T03:04:43.774Z,96998.95
2023-02-25T03:07:18.795Z,97008.97
2023-02-25T03:09:54.295Z,96995.34
2023-02-25T03:12:27.305Z,97012.44
2023-02-25T03:15:00.898Z,97019.29
2023-02-25T03:17:39.090Z,97011.63
2023-02-25T03:20:16.775Z,96996.30
2023-02-25T03:22:55.941Z,97012.48
2023-02-25T03:25:32.026Z,97009.97
2023-02-25T03:28:08.594Z,97004.87
2023-02-25T03:30:44.602Z,97000.62
2023-02-25T03:33:21.636Z,97002.34
2023-02-25T03:35:57.574Z,97014.32
2023-02-25T03:38:33.980Z,96991.31
2023-02-25T03:41:12.343Z,97009.31
2023-02-25T03:43:48.121Z,96996.48
2023-02-25T03:46:23.410Z,97023.89
2023-02-25T03:48:59.006Z,97006.86
2023-02-25T03:51:34.952Z,96983.89
2023-02-25T03:54:09.000Z,97004.38
2023-02-25T03:56:47.899Z,96998.44
2023-02-25T03:59:23.843Z,96988.21
2023-02-25T04:01:58.788Z,96991.66
2023-02-25T04:04:32.202Z,96999.36
2023-02-25T04:07:05.318Z,96989.96
2023-02-25T04:09:48.375Z,96976.34
2023-02-25T04:12:35.819Z,96983.21
2023-02-25T04:15:13.755Z,96970.45
2023-02-25T04:17:46.975Z,96985.83
2023-02-25T04:20:20.695Z,96978.16
2023-02-25T04:22:53.774Z,96975.61
2023-02-25T04:25:26.968Z,96964.56
2023-02-25T04:27:59.996Z,96979.11
2023-02-25T04:30:34.374Z,96980.85
2023-02-25T04:33:08.351Z,96982.53
2023-02-25T04:35:41.660Z,96990.29
2023-02-25T04:38:14.886Z,96982.62
2023-02-25T04:40:47.955Z,96994.59
2023-02-25T04:43:21.045Z,96995.45
2023-02-25T04:45:56.404Z,96972.28
2023-02-25T04:48:29.562Z,96986.08
2023-02-25T04:51:04.936Z,96986.94
2023-02-25T04:53:38.187Z,96999.84
2023-02-25T04:56:12.424Z,96996.48
2023-02-25T04:58:46.103Z,96991.34
2023-02-25T05:01:19.397Z,96999.94
2023-02-25T05:03:54.955Z,97005.13
2023-02-25T05:06:28.565Z,96991.48
2023-02-25T05:09:02.251Z,96998.36
2023-02-25T05:11:35.476Z,96991.50
2023-02-25T05:14:08.588Z,96998.43
2023-02-25T05:16:41.708Z,96987.30
2023-02-25T05:19:19.527Z,96991.59
2023-02-25T05:21:51.549Z,96999.38
2023-02-25T05:24:24.640Z,96995.15
2023-02-25T05:26:58.229Z,96980.62
2023-02-25T05:29:31.144Z,96997.77
2023-02-25T05:32:04.882Z,96993.55
2023-02-25T05:34:38.243Z,96983.30
2023-02-25T05:37:11.249Z,96993.55
2023-02-25T05:39:44.422Z,97001.31
2023-02-25T05:42:17.780Z,97007.33
2023-02-25T05:44:51.251Z,96999.70
2023-02-25T05:47:24.527Z,97003.20
2023-02-25T05:49:57.718Z,96998.95
2023-02-25T05:52:30.892Z,97010.96
2023-02-25T05:55:04.293Z,97010.16
2023-02-25T05:57:37.178Z,97009.36
2023-02-25T06:00:15.294Z,96999.97
2023-02-25T06:02:49.072Z,97019.64
2023-02-25T06:05:22.374Z,97017.13
2023-02-25T06:07:55.871Z,97018.97
2023-02-25T06:10:29.900Z,97018.95
2023-02-25T06:13:04.335Z,97007.81
2023-02-25T06:15:41.519Z,97017.25
2023-02-25T06:18:18.115Z,97017.31
2023-02-25T06:20:55.273Z,97014.77
2023-02-25T06:23:32.036Z,97021.63
2023-02-25T06:26:14.470Z,97016.52
2023-02-25T06:28:50.393Z,96992.66
2023-02-25T06:31:28.608Z,97008.13
2023-02-25T06:34:18.415Z,96997.12
2023-02-25T06:36:52.899Z,96993.74
2023-02-25T06:39:26.465Z,96992.97
2023-02-25T06:41:59.562Z,96992.14
2023-02-25T06:44:34.072Z,97003.31
2023-02-25T06:47:07.136Z,97000.75
2023-02-25T06:49:40.352Z,97017.92
2023-02-25T06:52:13.326Z,97014.52
2023-02-25T06:57:27.266Z,97014.64
2023-02-25T07:00:05.370Z,97011.93
2023-02-25T07:02:38.861Z,97036.80
2023-02-25T07:05:12.800Z,97022.28
2023-02-25T07:07:45.781Z,97016.27
2023-02-25T07:10:19.188Z,97013.73
2023-02-25T07:15:32.604Z,97015.73
2023-02-25T07:18:06.749Z,97020.81
2023-02-25T07:20:40.389Z,97031.95
2023-02-25T07:23:13.567Z,97023.50
2023-02-25T07:25:46.829Z,97010.70
2023-02-25T07:28:20.147Z,97010.70
2023-02-25T07:30:53.619Z,97022.77
2023-02-25T07:33:26.998Z,97012.53
2023-02-25T07:36:00.243Z,97022.03
2023-02-25T07:38:33.338Z,97028.91
2023-02-25T07:41:11.193Z,97022.88
2023-02-25T07:43:43.298Z,97021.19
2023-02-25T07:46:16.237Z,97014.36
2023-02-25T07:48:49.641Z,97029.80
2023-02-25T07:51:25.257Z,97033.20
2023-02-25T07:54:00.681Z,97031.56
2023-02-25T07:56:34.162Z,97028.15
2023-02-25T07:59:07.226Z,97018.69
2023-02-25T08:01:40.615Z,97037.59
2023-02-25T08:04:14.127Z,97026.45
2023-02-25T08:06:47.551Z,97033.33
2023-02-25T08:09:20.868Z,97035.06
2023-02-25T08:11:54.176Z,97037.64
2023-02-25T08:14:27.388Z,97038.45
2023-02-25T08:17:02.174Z,97037.56
2023-02-25T08:19:35.234Z,97040.17
2023-02-25T08:22:10.781Z,97040.17
2023-02-25T08:24:43.772Z,97045.32
2023-02-25T08:27:16.755Z,97042.78
2023-02-25T08:29:49.870Z,97040.20
2023-02-25T08:32:24.792Z,97049.66
2023-02-25T08:34:58.145Z,97052.20
2023-02-25T08:37:31.346Z,97042.78
2023-02-25T08:40:10.000Z,97049.63
2023-02-25T08:42:43.332Z,97051.39
2023-02-25T08:45:16.569Z,97051.39
2023-02-25T08:47:49.654Z,97043.67
2023-02-25T08:50:24.002Z,97042.82
2023-02-25T08:52:57.960Z,97042.01
2023-02-25T08:55:30.997Z,97045.43
2023-02-25T08:58:04.302Z,97050.61
2023-02-25T09:00:37.950Z,97039.46
2023-02-25T09:03:11.071Z,97052.37
2023-02-25T09:05:44.223Z,97036.91
2023-02-25T09:08:20.441Z,97038.64
2023-02-25T09:10:53.497Z,97043.80
2023-02-25T09:13:26.740Z,97040.36
2023-02-25T09:16:02.369Z,97037.79
2023-02-25T09:18:35.982Z,97042.94
2023-02-25T09:21:10.990Z,97036.96
2023-02-25T09:23:44.611Z,97053.29
2023-02-25T09:26:17.794Z,97054.16
2023-02-25T09:28:51.394Z,97062.74
2023-02-25T09:31:25.268Z,97068.76
2023-02-25T09:33:59.120Z,97048.99
2023-02-25T09:36:34.085Z,97045.54
2023-02-25T09:39:09.801Z,97050.72
2023-02-25T09:41:48.603Z,97046.41
2023-02-25T09:44:24.889Z,97044.69
2023-02-25T09:47:00.982Z,97046.41
2023-02-25T09:49:38.180Z,97057.59
2023-02-25T09:52:17.024Z,97052.41
2023-02-25T09:54:52.684Z,97048.11
2023-02-25T09:57:26.378Z,97048.97
2023-02-25T10:00:00.390Z,97055.85
2023-02-25T10:02:39.419Z,97058.39
2023-02-25T10:05:26.685Z,97057.55
2023-02-25T10:08:06.678Z,97066.13
2023-02-25T10:10:46.865Z,97062.67
2023-02-25T10:13:27.347Z,97058.34
2023-02-25T10:16:06.424Z,97055.77
2023-02-25T10:18:47.633Z,97066.06
2023-02-25T10:21:27.131Z,97066.06
2023-02-25T10:24:29.490Z,97064.41
2023-02-25T10:27:07.607Z,97061.83
2023-02-25T10:29:45.973Z,97061.00
2023-02-25T10:32:23.350Z,97059.30
2023-02-25T10:34:59.753Z,97067.05
2023-02-25T10:37:37.737Z,97067.09
2023-02-25T10:42:59.761Z,97049.05
2023-02-25T10:45:33.786Z,97055.93
2023-02-25T10:48:10.502Z,97039.59
2023-02-25T10:50:46.244Z,97043.04
2023-02-25T10:53:19.893Z,97045.62
2023-02-25T10:55:55.055Z,97043.05
2023-02-25T10:58:35.194Z,97036.18
2023-02-25T11:01:15.803Z,97041.31
2023-02-25T11:03:59.121Z,97043.91
2023-02-25T11:06:35.546Z,97045.63
2023-02-25T11:09:13.727Z,97058.52
2023-02-25T11:11:55.123Z,97049.92
2023-02-25T11:14:31.042Z,97050.78
2023-02-25T11:17:09.407Z,97067.13
2023-02-25T11:19:44.641Z,97045.64
2023-02-25T11:22:22.872Z,97034.45
2023-02-25T11:25:02.489Z,97057.67
2023-02-25T11:27:39.584Z,97067.98
2023-02-25T11:30:24.436Z,97059.39
2023-02-25T11:32:59.503Z,97060.26
2023-02-25T11:35:36.008Z,97057.68
2023-02-25T11:38:18.204Z,97060.25
2023-02-25T11:40:51.442Z,97050.78
2023-02-25T11:43:27.477Z,97062.84
2023-02-25T11:46:04.209Z,97066.25
2023-02-25T11:48:43.000Z,97054.23
2023-02-25T11:51:21.498Z,97066.27
2023-02-25T11:54:04.802Z,97073.98
2023-02-25T11:56:40.393Z,97081.72
2023-02-25T11:59:26.005Z,97077.44
2023-02-25T12:05:43.618Z,97074.87
2023-02-25T12:08:39.097Z,97077.44
2023-02-25T12:11:45.199Z,97088.62
2023-02-25T12:15:06.310Z,97078.30
2023-02-25T12:17:58.442Z,97074.00
2023-02-25T12:20:56.564Z,97085.17
2023-02-25T12:24:12.662Z,97086.89
2023-02-25T12:27:10.618Z,97086.02
2023-02-25T12:30:21.085Z,97074.86
2023-02-25T12:33:06.418Z,97082.59
2023-02-25T12:36:04.884Z,97096.37
2023-02-25T12:39:11.727Z,97102.38
2023-02-25T12:41:48.705Z,97096.35
2023-02-25T12:44:58.355Z,97092.91
2023-02-25T12:47:48.978Z,97096.34
2023-02-25T12:53:38.588Z,97102.38
2023-02-25T12:56:24.263Z,97104.08
2023-02-25T12:59:25.038Z,97103.23
2023-02-25T13:02:21.988Z,97101.50
2023-02-25T13:05:05.581Z,97097.20
2023-02-25T13:08:22.866Z,97093.77
2023-02-25T13:14:11.023Z,97086.05
2023-02-25T13:16:54.633Z,97078.30
2023-02-25T13:19:41.261Z,97078.30
2023-02-25T13:22:24.731Z,97067.97
2023-02-25T13:25:01.608Z,97067.11
2023-02-25T13:28:14.992Z,97070.55
2023-02-25T13:34:01.349Z,97075.72
2023-02-25T13:36:42.522Z,97074.86
2023-02-25T13:39:38.303Z,97079.16
2023-02-25T13:42:43.272Z,97071.42
2023-02-25T13:45:54.774Z,97077.45
2023-02-25T13:48:41.335Z,97074.85
2023-02-25T13:51:43.408Z,97067.96
2023-02-25T13:54:37.113Z,97057.65
2023-02-25T13:57:18.364Z,97052.48
2023-02-25T14:00:07.208Z,97049.04
2023-02-25T14:03:05.578Z,97055.92
2023-02-25T14:05:52.672Z,97061.08
2023-02-25T14:08:46.502Z,97063.64
2023-02-25T14:12:12.990Z,97064.48
2023-02-25T14:15:05.249Z,97058.48
2023-02-25T14:17:49.291Z,97067.06
2023-02-25T14:20:31.330Z,97067.06
2023-02-25T14:23:08.092Z,97055.91
2023-02-25T14:25:47.032Z,97049.02
2023-02-25T14:28:24.845Z,97062.79
2023-02-25T14:31:05.872Z,97061.08
2023-02-25T14:34:10.230Z,97072.23
2023-02-25T14:36:55.129Z,97073.97
2023-02-25T14:39:39.879Z,97080.85
2023-02-25T14:42:21.543Z,97088.60
2023-02-25T14:44:57.820Z,97080.00
2023-02-25T14:47:34.215Z,97088.56
2023-02-25T14:50:10.642Z,97091.14
2023-02-25T14:53:39.301Z,97092.86
2023-02-25T15:00:05.178Z,97081.70
2023-02-25T15:02:55.490Z,97077.38
2023-02-25T15:05:35.383Z,97083.41
2023-02-25T15:11:42.825Z,97068.83
2023-02-25T15:14:48.900Z,97087.69
2023-02-25T15:17:53.447Z,97069.64
2023-02-25T15:20:35.350Z,97063.66
2023-02-25T15:23:13.945Z,97059.36
2023-02-25T15:25:53.006Z,97073.95
2023-02-25T15:28:46.765Z,97073.10
2023-02-25T15:31:38.767Z,97078.26
2023-02-25T15:34:37.833Z,97078.25
2023-02-25T15:37:47.075Z,97079.10
2023-02-25T15:40:45.476Z,97068.79
2023-02-25T15:43:44.519Z,97066.23
2023-02-25T15:49:34.546Z,97031.86
2023-02-25T15:52:10.931Z,97049.88
2023-02-25T15:54:52.600Z,97035.27
2023-02-25T15:57:42.060Z,97037.84
2023-02-25T16:01:07.254Z,97030.97
2023-02-25T16:03:44.904Z,97035.27
2023-02-25T16:06:21.741Z,97042.13
2023-02-25T16:08:58.344Z,97034.39
2023-02-25T16:11:36.411Z,97045.58
2023-02-25T16:14:14.406Z,97040.42
2023-02-25T16:16:50.785Z,97035.27
2023-02-25T16:19:26.751Z,97041.28
2023-02-25T16:22:04.109Z,97022.36
2023-02-25T16:24:38.849Z,97036.11
2023-02-25T16:27:16.312Z,97019.77
2023-02-25T16:29:55.566Z,97026.65
2023-02-25T16:32:34.368Z,97027.50
2023-02-25T16:37:55.751Z,97016.34
2023-02-25T16:40:31.894Z,97026.60
2023-02-25T16:43:05.898Z,97019.75
2023-02-25T16:45:41.952Z,97030.91
2023-02-25T16:48:20.400Z,97006.84
2023-02-25T16:50:54.752Z,96996.55
2023-02-25T16:53:29.741Z,97006.00
2023-02-25T16:56:03.374Z,97000.00
2023-02-25T16:58:36.724Z,97006.00
2023-02-25T17:01:15.130Z,96990.54
2023-02-25T17:03:49.236Z,96993.97
2023-02-25T17:06:23.666Z,97001.70
2023-02-25T17:08:56.997Z,97001.69
2023-02-25T17:11:30.429Z,97022.33
2023-02-25T17:14:05.970Z,97013.72
2023-02-25T17:16:43.756Z,97012.02
2023-02-25T17:19:17.246Z,97035.16
2023-02-25T17:21:53.597Z,97020.58
2023-02-25T17:24:29.540Z,97013.67
2023-02-25T17:27:03.478Z,97015.41
2023-02-25T17:29:38.541Z,97025.70
2023-02-25T17:32:25.324Z,97016.25
2023-02-25T17:35:01.240Z,97020.55
2023-02-25T17:37:35.190Z,97005.07
2023-02-25T17:40:11.672Z,97019.67
2023-02-25T17:42:46.360Z,97017.95
2023-02-25T17:45:46.697Z,97027.41
2023-02-25T17:48:22.241Z,97018.80
2023-02-25T17:50:57.784Z,97032.52
2023-02-25T17:53:42.983Z,97022.22
2023-02-25T17:56:21.251Z,97016.22
2023-02-25T17:58:56.334Z,96999.05
2023-02-25T18:01:31.598Z,96998.16
2023-02-25T18:04:07.096Z,96997.32
2023-02-25T18:06:45.064Z,96987.86
2023-02-25T18:09:41.106Z,96981.88
2023-02-25T18:15:16.006Z,96963.86
2023-02-25T18:17:53.185Z,96956.12
2023-02-25T18:20:31.916Z,96950.13
2023-02-25T18:23:06.322Z,96958.70
2023-02-25T18:25:41.488Z,96984.45
2023-02-25T18:28:17.358Z,96984.41
2023-02-25T18:30:52.590Z,96966.42
2023-02-25T18:33:25.818Z,96972.41
2023-02-25T18:35:59.318Z,96980.14
2023-02-25T18:38:37.274Z,96973.27
2023-02-25T18:41:12.132Z,96997.28
2023-02-25T18:43:45.387Z,96992.14
2023-02-25T18:46:18.437Z,96993.86
2023-02-25T18:48:58.464Z,96986.17
2023-02-25T18:51:31.664Z,96996.47
2023-02-25T18:54:05.609Z,97001.62
2023-02-25T18:56:39.255Z,96987.05
2023-02-25T18:59:12.583Z,96980.14
2023-02-25T19:01:49.537Z,96988.75
2023-02-25T19:04:27.078Z,96980.99
2023-02-25T19:07:07.927Z,96985.27
2023-02-25T19:09:41.871Z,96979.27
2023-02-25T19:12:29.950Z,96971.54
2023-02-25T19:15:19.626Z,96965.55
2023-02-25T19:17:53.182Z,96958.64
2023-02-25T19:20:26.906Z,96962.94
2023-02-25T19:23:00.180Z,96962.06
2023-02-25T19:25:36.852Z,96974.94
2023-02-25T19:28:11.092Z,96937.17
2023-02-25T19:30:45.356Z,96964.64
2023-02-25T19:33:18.605Z,96959.48
2023-02-25T19:35:51.494Z,96963.76
2023-02-25T19:38:24.761Z,96941.50
2023-02-25T19:41:02.622Z,96950.92
2023-02-25T19:43:34.492Z,96940.59
2023-02-25T19:46:11.284Z,96947.50
2023-02-25T19:48:44.469Z,96935.41
2023-02-25T19:51:17.928Z,96930.27
2023-02-25T19:53:51.062Z,96931.15
2023-02-25T19:56:24.525Z,96931.96
2023-02-25T19:59:00.188Z,96933.69
2023-02-25T20:01:33.412Z,96943.17
2023-02-25T20:04:06.789Z,96937.98
2023-02-25T20:06:40.329Z,96936.27
2023-02-25T20:09:13.495Z,96933.69
2023-02-25T20:11:47.292Z,96937.11
2023-02-25T20:14:20.332Z,96934.53
2023-02-25T20:16:53.816Z,96902.83
2023-02-25T20:19:28.159Z,96909.65
2023-02-25T20:22:06.521Z,96923.39
2023-02-25T20:24:39.911Z,96943.10
2023-02-25T20:27:15.970Z,96939.69
2023-02-25T20:29:49.226Z,96925.05
2023-02-25T20:32:22.607Z,96923.36
2023-02-25T20:34:56.634Z,96935.38
2023-02-25T20:37:35.382Z,96929.36
2023-02-25T20:40:12.186Z,96915.61
2023-02-25T20:42:45.988Z,96918.22
2023-02-25T20:45:21.006Z,96916.45
2023-02-25T20:47:54.940Z,96918.19
2023-02-25T20:50:30.401Z,96903.62
2023-02-25T20:53:04.386Z,96904.44
2023-02-25T20:55:38.534Z,96889.88
2023-02-25T20:58:12.359Z,96887.34
2023-02-25T21:00:45.578Z,96879.62
2023-02-25T21:03:18.743Z,96889.00
2023-02-25T21:05:51.954Z,96883.02
2023-02-25T21:08:25.188Z,96877.87
2023-02-25T21:11:00.903Z,96871.03
2023-02-25T21:13:36.291Z,96902.75
2023-02-25T21:16:10.537Z,96877.02
2023-02-25T21:18:44.851Z,96837.55
2023-02-25T21:21:21.207Z,96851.27
2023-02-25T21:23:54.549Z,96854.72
2023-02-25T21:26:27.406Z,96838.43
2023-02-25T21:29:00.802Z,96843.55
2023-02-25T21:31:34.172Z,96832.44
2023-02-25T21:34:09.305Z,96823.02
2023-02-25T21:36:42.735Z,96845.27
2023-02-25T21:39:17.273Z,96819.57
2023-02-25T21:41:50.492Z,96829.02
2023-02-25T21:44:23.659Z,96884.73
2023-02-25T21:46:58.295Z,96877.02
2023-02-25T21:49:31.888Z,96865.88
2023-02-25T21:52:05.564Z,96860.73
2023-02-25T21:54:38.774Z,96843.61
2023-02-25T21:57:11.841Z,96868.45
2023-02-25T21:59:44.872Z,96867.61
2023-02-25T22:02:17.976Z,96866.76
2023-02-25T22:04:51.109Z,96857.34
2023-02-25T22:07:24.160Z,96856.48
2023-02-25T22:09:57.753Z,96847.04
2023-02-25T22:12:30.932Z,96852.19
2023-02-25T22:15:04.134Z,96839.33
2023-02-25T22:17:37.297Z,96830.75
2023-02-25T22:20:13.117Z,96823.88
2023-02-25T22:22:46.256Z,96828.18
2023-02-25T22:25:20.295Z,96826.45
2023-02-25T22:27:53.341Z,96859.91
2023-02-25T22:30:26.769Z,96843.63
2023-02-25T22:32:59.825Z,96837.59
2023-02-25T22:35:32.880Z,96838.48
2023-02-25T22:38:06.011Z,96787.85
2023-02-25T22:40:39.781Z,96785.28
2023-02-25T22:43:12.958Z,96790.44
2023-02-25T22:45:46.226Z,96777.58
2023-02-25T22:48:19.370Z,96782.70
2023-02-25T22:50:52.795Z,96760.41
2023-02-25T22:53:26.015Z,96771.55
2023-02-25T22:56:02.529Z,96762.98
2023-02-25T22:58:37.071Z,96752.70
2023-02-25T23:01:11.202Z,96766.41
2023-02-25T23:03:44.537Z,96765.55
2023-02-25T23:06:20.316Z,96770.69
2023-02-25T23:08:53.955Z,96744.98
2023-02-25T23:11:28.581Z,96756.12
2023-02-25T23:14:04.262Z,96735.55
2023-02-25T23:16:40.494Z,96764.69
2023-02-25T23:19:16.516Z,96743.27
2023-02-25T23:21:51.082Z,96735.55
2023-02-25T23:24:24.149Z,96725.23
2023-02-25T23:26:58.558Z,96709.81
2023-02-25T23:29:31.477Z,96732.09
2023-02-25T23:32:04.850Z,96704.64
2023-02-25T23:34:38.168Z,96722.66
2023-02-25T23:37:11.478Z,96724.38
2023-02-25T23:39:44.647Z,96708.95
2023-02-25T23:42:17.672Z,96706.37
2023-02-25T23:44:51.140Z,96695.22
2023-02-25T23:47:24.324Z,96696.94
2023-02-25T23:49:57.786Z,96669.48
2023-02-25T23:52:30.978Z,96618.86
2023-02-25T23:55:05.739Z,96658.34
2023-02-25T23:57:39.439Z,96644.62
